createdAt,value
2022-09-12T00:00:07.037Z,11.82
2022-09-12T00:02:33.443Z,11.00
2022-09-12T00:04:59.787Z,11.07
2022-09-12T00:07:26.157Z,11.70
2022-09-12T00:09:52.516Z,10.65
2022-09-12T00:12:20.288Z,10.73
2022-09-12T00:14:46.646Z,10.85
2022-09-12T00:17:12.985Z,10.63
2022-09-12T00:19:39.402Z,11.30
2022-09-12T00:22:05.776Z,11.05
2022-09-12T00:24:32.279Z,11.95
2022-09-12T00:26:58.644Z,11.13
2022-09-12T00:29:26.377Z,11.75
2022-09-12T00:31:52.809Z,11.57
2022-09-12T00:34:19.166Z,10.80
2022-09-12T00:36:45.526Z,10.82
2022-09-12T00:39:14.963Z,10.88
2022-09-12T00:41:41.314Z,11.70
2022-09-12T00:44:41.237Z,11.65
2022-09-12T00:47:16.164Z,11.20
2022-09-12T00:49:47.624Z,10.80
2022-09-12T00:52:19.138Z,11.90
2022-09-12T00:54:49.742Z,10.95
2022-09-12T00:57:17.953Z,11.15
2022-09-12T00:59:50.061Z,11.80
2022-09-12T01:02:18.521Z,11.32
2022-09-12T01:04:45.271Z,11.45
2022-09-12T01:07:12.628Z,10.43
2022-09-12T01:09:40.499Z,11.48
2022-09-12T01:12:06.968Z,11.68
2022-09-12T01:14:34.889Z,11.55
2022-09-12T01:17:01.656Z,10.30
2022-09-12T01:20:05.502Z,11.23
2022-09-12T01:22:54.581Z,10.88
2022-09-12T01:25:28.660Z,10.65
2022-09-12T01:28:21.244Z,10.23
2022-09-12T01:30:54.049Z,11.10
2022-09-12T01:33:39.776Z,11.37
2022-09-12T01:36:24.639Z,10.20
2022-09-12T01:38:58.731Z,11.50
2022-09-12T01:41:29.770Z,10.70
2022-09-12T01:44:03.869Z,10.82
2022-09-12T01:46:36.345Z,11.50
2022-09-12T01:49:09.060Z,10.85
2022-09-12T01:51:39.711Z,9.53
2022-09-12T01:54:09.746Z,10.13
2022-09-12T01:56:39.866Z,10.93
2022-09-12T01:59:10.963Z,11.73
2022-09-12T02:01:45.776Z,11.35
2022-09-12T02:04:15.509Z,11.52
2022-09-12T02:06:48.910Z,10.65
2022-09-12T02:09:21.060Z,11.82
2022-09-12T02:11:49.908Z,10.48
2022-09-12T02:14:21.408Z,11.27
2022-09-12T02:16:54.342Z,10.32
2022-09-12T02:19:23.752Z,11.23
2022-09-12T02:21:53.776Z,10.48
2022-09-12T02:24:21.966Z,9.90
2022-09-12T02:26:54.531Z,10.88
2022-09-12T02:29:20.925Z,11.40
2022-09-12T02:31:54.147Z,9.15
2022-09-12T02:34:32.095Z,10.02
2022-09-12T02:37:06.685Z,10.05
2022-09-12T02:39:33.602Z,11.25
2022-09-12T02:42:02.245Z,10.98
2022-09-12T02:44:30.504Z,10.63
2022-09-12T02:47:02.275Z,10.43
2022-09-12T02:49:28.668Z,12.30
2022-09-12T02:51:55.539Z,11.57
2022-09-12T02:54:22.047Z,11.32
2022-09-12T02:56:48.395Z,11.60
2022-09-12T02:59:17.760Z,11.50
2022-09-12T03:02:06.650Z,12.43
2022-09-12T03:04:53.377Z,11.82
2022-09-12T03:07:33.204Z,13.48
2022-09-12T03:10:05.471Z,12.25
2022-09-12T03:12:44.071Z,12.60
2022-09-12T03:15:25.339Z,12.52
2022-09-12T03:18:05.899Z,12.55
2022-09-12T03:20:44.728Z,13.82
2022-09-12T03:23:18.965Z,14.35
2022-09-12T03:25:51.447Z,13.73
2022-09-12T03:28:20.055Z,12.60
2022-09-12T03:30:48.354Z,13.50
2022-09-12T03:33:17.932Z,12.43
2022-09-12T03:35:44.920Z,11.85
2022-09-12T03:38:11.356Z,12.10
2022-09-12T03:40:38.283Z,11.95
2022-09-12T03:43:05.754Z,12.13
2022-09-12T03:45:32.415Z,12.30
2022-09-12T03:47:59.428Z,11.88
2022-09-12T03:50:27.299Z,11.88
2022-09-12T03:52:53.865Z,12.05
2022-09-12T03:55:20.278Z,11.20
2022-09-12T03:57:46.619Z,11.02
2022-09-12T04:00:17.676Z,11.95
2022-09-12T04:02:46.303Z,14.20
2022-09-12T04:05:12.789Z,11.45
2022-09-12T04:07:40.479Z,12.25
2022-09-12T04:10:09.483Z,13.27
2022-09-12T04:12:36.015Z,12.57
2022-09-12T04:15:02.543Z,12.77
2022-09-12T04:17:28.902Z,12.30
2022-09-12T04:19:55.257Z,13.32
2022-09-12T04:22:21.623Z,12.65
2022-09-12T04:24:49.324Z,11.45
2022-09-12T04:27:15.718Z,13.68
2022-09-12T04:29:42.074Z,13.07
2022-09-12T04:32:08.420Z,13.05
2022-09-12T04:34:34.907Z,14.25
2022-09-12T04:37:01.271Z,14.07
2022-09-12T04:39:27.617Z,14.10
2022-09-12T04:41:55.335Z,12.38
2022-09-12T04:44:21.961Z,13.45
2022-09-12T04:46:48.412Z,13.55
2022-09-12T04:49:15.588Z,12.80
2022-09-12T04:51:42.790Z,14.98
2022-09-12T04:54:12.130Z,14.15
2022-09-12T04:56:39.783Z,13.98
2022-09-12T04:59:08.132Z,13.48
2022-09-12T05:01:35.187Z,13.60
2022-09-12T05:04:02.086Z,13.18
2022-09-12T05:06:30.573Z,13.05
2022-09-12T05:08:57.541Z,13.65
2022-09-12T05:11:36.853Z,15.00
2022-09-12T05:14:13.968Z,14.80
2022-09-12T05:16:40.355Z,15.35
2022-09-12T05:19:06.840Z,14.55
2022-09-12T05:21:33.269Z,13.50
2022-09-12T05:23:59.668Z,14.43
2022-09-12T05:26:26.589Z,13.35
2022-09-12T05:28:54.053Z,15.88
2022-09-12T05:31:23.584Z,15.95
2022-09-12T05:33:51.915Z,15.68
2022-09-12T05:36:19.940Z,15.23
2022-09-12T05:38:47.117Z,15.25
2022-09-12T05:41:18.958Z,13.63
2022-09-12T05:46:16.602Z,14.85
2022-09-12T05:48:45.760Z,13.55
2022-09-12T05:51:14.471Z,12.25
2022-09-12T05:53:41.324Z,14.48
2022-09-12T05:56:10.280Z,14.43
2022-09-12T05:58:39.229Z,15.27
2022-09-12T06:01:06.736Z,14.02
2022-09-12T06:03:33.361Z,14.07
2022-09-12T06:06:03.905Z,14.75
2022-09-12T06:08:30.880Z,15.07
2022-09-12T06:11:02.372Z,13.63
2022-09-12T06:13:30.724Z,13.43
2022-09-12T06:16:02.649Z,14.00
2022-09-12T06:18:29.000Z,13.75
2022-09-12T06:20:55.372Z,14.50
2022-09-12T06:23:24.602Z,14.43
2022-09-12T06:25:50.994Z,14.13
2022-09-12T06:28:17.372Z,14.35
2022-09-12T06:30:43.750Z,13.10
2022-09-12T06:33:10.138Z,15.95
2022-09-12T06:35:37.019Z,15.07
2022-09-12T06:38:03.732Z,13.40
2022-09-12T06:40:31.622Z,15.90
2022-09-12T06:42:57.991Z,13.60
2022-09-12T06:45:24.418Z,14.30
2022-09-12T06:47:50.778Z,15.68
2022-09-12T06:50:17.411Z,14.35
2022-09-12T06:52:43.747Z,14.35
2022-09-12T06:55:10.282Z,15.18
2022-09-12T06:57:37.965Z,14.50
2022-09-12T07:00:05.494Z,13.82
2022-09-12T07:02:31.896Z,14.75
2022-09-12T07:04:58.340Z,14.32
2022-09-12T07:07:24.688Z,13.07
2022-09-12T07:09:51.043Z,14.73
2022-09-12T07:12:17.448Z,13.68
2022-09-12T07:14:45.138Z,12.80
2022-09-12T07:17:11.547Z,12.82
2022-09-12T07:19:37.931Z,14.40
2022-09-12T07:22:04.330Z,13.57
2022-09-12T07:24:30.695Z,12.60
2022-09-12T07:26:57.038Z,13.60
2022-09-12T07:29:36.642Z,13.52
2022-09-12T07:32:06.011Z,12.57
2022-09-12T07:34:32.687Z,15.50
2022-09-12T07:36:59.060Z,13.25
2022-09-12T07:39:25.427Z,14.90
2022-09-12T07:41:51.788Z,13.25
2022-09-12T07:44:18.183Z,13.20
2022-09-12T07:46:44.552Z,13.65
2022-09-12T07:49:12.968Z,14.35
2022-09-12T07:51:39.315Z,14.07
2022-09-12T07:54:07.734Z,13.27
2022-09-12T07:56:38.730Z,12.60
2022-09-12T07:59:05.651Z,13.25
2022-09-12T08:01:32.299Z,11.93
2022-09-12T08:04:00.034Z,12.48
2022-09-12T08:06:29.006Z,12.48
2022-09-12T08:08:57.264Z,13.18
2022-09-12T08:11:25.120Z,13.90
2022-09-12T08:13:55.603Z,13.63
2022-09-12T08:16:24.743Z,12.95
2022-09-12T08:18:51.364Z,12.98
2022-09-12T08:21:19.214Z,12.38
2022-09-12T08:23:47.853Z,11.35
2022-09-12T08:26:14.388Z,11.13
2022-09-12T08:28:44.718Z,10.88
2022-09-12T08:31:13.199Z,10.60
2022-09-12T08:33:39.826Z,10.75
2022-09-12T08:36:09.794Z,10.77
2022-09-12T08:38:37.729Z,10.13
2022-09-12T08:41:11.807Z,8.88
2022-09-12T08:43:56.116Z,10.30
2022-09-12T08:46:31.444Z,9.52
2022-09-12T08:49:00.539Z,9.02
2022-09-12T08:51:28.959Z,8.35
2022-09-12T08:53:57.177Z,8.40
2022-09-12T08:56:30.995Z,8.68
2022-09-12T08:58:58.065Z,7.25
2022-09-12T09:01:30.699Z,9.75
2022-09-12T09:04:13.276Z,9.47
2022-09-12T09:07:07.654Z,9.65
2022-09-12T09:09:44.657Z,9.32
2022-09-12T09:12:20.676Z,8.30
2022-09-12T09:15:02.549Z,7.90
2022-09-12T09:17:33.363Z,7.15
2022-09-12T09:20:05.587Z,6.50
2022-09-12T09:22:41.179Z,7.50
2022-09-12T09:25:15.022Z,7.07
2022-09-12T09:27:49.084Z,6.82
2022-09-12T09:30:17.565Z,7.30
2022-09-12T09:32:47.590Z,6.00
2022-09-12T09:35:17.301Z,5.05
2022-09-12T09:37:58.628Z,6.10
2022-09-12T09:40:30.861Z,6.10
2022-09-12T09:43:05.240Z,6.30
2022-09-12T09:45:31.624Z,5.55
2022-09-12T09:48:00.912Z,5.50
2022-09-12T09:50:27.715Z,5.57
2022-09-12T09:52:57.618Z,6.18
2022-09-12T09:55:29.045Z,6.07
2022-09-12T09:57:55.424Z,5.10
2022-09-12T10:00:26.982Z,6.07
2022-09-12T10:03:00.811Z,6.05
2022-09-12T10:05:27.362Z,5.78
2022-09-12T10:07:53.850Z,6.22
2022-09-12T10:10:20.923Z,5.88
2022-09-12T10:12:47.282Z,5.47
2022-09-12T10:15:20.109Z,6.03
2022-09-12T10:17:49.443Z,5.10
2022-09-12T10:20:33.787Z,5.07
2022-09-12T10:23:01.958Z,5.45
2022-09-12T10:25:28.813Z,5.20
2022-09-12T10:27:59.231Z,4.95
2022-09-12T10:30:27.205Z,4.60
2022-09-12T10:32:59.183Z,5.53
2022-09-12T10:35:29.484Z,5.22
2022-09-12T10:37:59.755Z,5.10
2022-09-12T10:40:28.253Z,4.50
2022-09-12T10:42:57.335Z,4.75
2022-09-12T10:45:27.400Z,4.30
2022-09-12T10:47:56.523Z,4.18
2022-09-12T10:50:26.083Z,4.10
2022-09-12T10:52:52.656Z,4.00
2022-09-12T10:55:28.056Z,3.78
2022-09-12T10:58:18.104Z,3.50
2022-09-12T11:00:52.544Z,3.60
2022-09-12T11:03:23.749Z,3.60
2022-09-12T11:05:54.530Z,3.65
2022-09-12T11:08:38.083Z,3.17
2022-09-12T11:11:10.543Z,3.00
2022-09-12T11:13:58.374Z,3.30
2022-09-12T11:16:32.253Z,3.58
2022-09-12T11:19:12.797Z,2.78
2022-09-12T11:21:52.427Z,3.08
2022-09-12T11:24:33.799Z,3.25
2022-09-12T11:27:11.938Z,3.00
2022-09-12T11:29:48.484Z,2.90
2022-09-12T11:32:42.936Z,2.50
2022-09-12T11:35:19.404Z,2.55
2022-09-12T11:38:09.644Z,2.70
2022-09-12T11:40:42.220Z,2.88
2022-09-12T11:43:29.178Z,2.53
2022-09-12T11:45:59.189Z,2.50
2022-09-12T11:48:38.236Z,2.45
2022-09-12T11:51:15.795Z,2.55
2022-09-12T11:53:44.369Z,2.83
2022-09-12T11:56:16.926Z,1.90
2022-09-12T11:58:46.963Z,2.43
2022-09-12T12:01:17.604Z,2.15
2022-09-12T12:03:46.808Z,2.00
2022-09-12T12:06:18.071Z,2.22
2022-09-12T12:08:46.245Z,2.40
2022-09-12T12:11:14.625Z,2.63
2022-09-12T12:13:46.861Z,2.40
2022-09-12T12:16:18.165Z,2.25
2022-09-12T12:18:45.358Z,2.35
2022-09-12T12:21:35.036Z,2.08
2022-09-12T12:24:20.606Z,2.28
2022-09-12T12:26:59.088Z,2.20
2022-09-12T12:29:44.159Z,2.40
2022-09-12T12:32:26.869Z,2.33
2022-09-12T12:35:38.562Z,2.13
2022-09-12T12:38:27.317Z,3.35
2022-09-12T12:40:54.141Z,2.92
2022-09-12T12:43:31.684Z,2.45
2022-09-12T12:46:07.655Z,2.75
2022-09-12T12:49:03.838Z,2.20
2022-09-12T12:51:45.400Z,3.08
2022-09-12T12:54:31.326Z,2.42
2022-09-12T12:57:04.691Z,2.65
2022-09-12T13:01:59.768Z,3.42
2022-09-12T13:04:31.336Z,2.85
2022-09-12T13:07:07.212Z,2.75
2022-09-12T13:09:39.544Z,2.72
2022-09-12T13:12:09.772Z,2.75
2022-09-12T13:14:48.912Z,3.30
2022-09-12T13:17:21.890Z,2.83
2022-09-12T13:19:49.741Z,3.60
2022-09-12T13:22:16.263Z,4.10
2022-09-12T13:24:45.044Z,3.10
2022-09-12T13:27:18.572Z,3.13
2022-09-12T13:29:45.013Z,3.22
2022-09-12T13:32:11.447Z,2.75
2022-09-12T13:34:52.920Z,3.30
2022-09-12T13:37:42.615Z,3.85
2022-09-12T13:40:27.343Z,3.03
2022-09-12T13:43:12.548Z,2.90
2022-09-12T13:45:39.268Z,3.40
2022-09-12T13:48:08.092Z,2.80
2022-09-12T13:50:41.202Z,3.42
2022-09-12T13:53:14.291Z,2.67
2022-09-12T13:55:45.452Z,2.63
2022-09-12T13:58:21.948Z,3.30
2022-09-12T14:01:01.316Z,2.30
2022-09-12T14:03:29.591Z,2.25
2022-09-12T14:05:57.243Z,2.78
2022-09-12T14:08:23.963Z,2.28
2022-09-12T14:10:51.717Z,2.45
2022-09-12T14:13:20.606Z,2.65
2022-09-12T14:15:48.958Z,2.55
2022-09-12T14:18:23.659Z,2.65
2022-09-12T14:20:51.577Z,2.50
2022-09-12T14:23:21.172Z,2.70
2022-09-12T14:25:48.888Z,2.28
2022-09-12T14:28:21.527Z,2.25
2022-09-12T14:31:01.316Z,1.95
2022-09-12T14:33:28.285Z,2.60
2022-09-12T14:36:09.890Z,2.45
2022-09-12T14:38:40.295Z,2.45
2022-09-12T14:41:09.240Z,2.55
2022-09-12T14:43:41.114Z,2.40
2022-09-12T14:46:16.875Z,2.70
2022-09-12T14:48:47.596Z,2.60
2022-09-12T14:51:20.976Z,2.50
2022-09-12T14:56:14.517Z,2.22
2022-09-12T14:58:42.585Z,2.97
2022-09-12T15:01:23.740Z,2.40
2022-09-12T15:03:52.405Z,2.67
2022-09-12T15:06:23.394Z,2.22
2022-09-12T15:08:49.959Z,2.45
2022-09-12T15:11:16.308Z,2.47
2022-09-12T15:13:44.017Z,1.92
2022-09-12T15:16:11.847Z,3.28
2022-09-12T15:18:38.347Z,2.75
2022-09-12T15:21:06.923Z,2.40
2022-09-12T15:23:36.750Z,2.35
2022-09-12T15:26:03.707Z,2.22
2022-09-12T15:28:31.382Z,2.65
2022-09-12T15:31:05.554Z,2.83
2022-09-12T15:33:31.918Z,2.70
2022-09-12T15:35:58.306Z,2.50
2022-09-12T15:38:26.754Z,3.10
2022-09-12T15:40:53.845Z,3.05
2022-09-12T15:43:20.931Z,2.47
2022-09-12T15:45:48.432Z,2.13
2022-09-12T15:48:16.094Z,2.70
2022-09-12T15:50:42.536Z,2.75
2022-09-12T15:53:13.912Z,2.70
2022-09-12T15:55:40.384Z,2.85
2022-09-12T15:58:07.485Z,2.70
2022-09-12T16:00:33.972Z,2.58
2022-09-12T16:03:00.365Z,2.42
2022-09-12T16:05:28.373Z,2.50
2022-09-12T16:07:55.212Z,3.22
2022-09-12T16:10:25.176Z,2.47
2022-09-12T16:12:51.872Z,2.60
2022-09-12T16:15:21.475Z,2.50
2022-09-12T16:17:48.477Z,2.40
2022-09-12T16:20:15.514Z,2.60
2022-09-12T16:22:43.204Z,2.15
2022-09-12T16:25:10.040Z,2.00
2022-09-12T16:27:37.189Z,2.67
2022-09-12T16:30:04.881Z,2.50
2022-09-12T16:32:31.315Z,3.83
2022-09-12T16:34:57.725Z,4.10
2022-09-12T16:37:24.122Z,3.00
2022-09-12T16:39:51.846Z,2.78
2022-09-12T16:42:18.270Z,3.30
2022-09-12T16:44:44.785Z,2.60
2022-09-12T16:47:11.299Z,3.20
2022-09-12T16:49:37.668Z,3.88
2022-09-12T16:52:04.356Z,2.95
2022-09-12T16:54:30.730Z,3.30
2022-09-12T16:56:58.444Z,2.42
2022-09-12T16:59:26.048Z,3.00
2022-09-12T17:01:52.427Z,3.45
2022-09-12T17:04:22.983Z,2.70
2022-09-12T17:06:50.180Z,2.72
2022-09-12T17:09:16.660Z,2.40
2022-09-12T17:11:43.015Z,2.83
2022-09-12T17:14:11.455Z,2.63
2022-09-12T17:16:42.976Z,2.50
2022-09-12T17:19:14.267Z,2.78
2022-09-12T17:21:40.728Z,3.08
2022-09-12T17:24:07.187Z,3.15
2022-09-12T17:26:33.615Z,3.08
2022-09-12T17:29:00.139Z,2.65
2022-09-12T17:31:27.931Z,3.00
2022-09-12T17:33:56.450Z,2.67
2022-09-12T17:36:22.818Z,2.88
2022-09-12T17:38:49.187Z,3.17
2022-09-12T17:41:17.915Z,3.42
2022-09-12T17:43:44.899Z,3.17
2022-09-12T17:46:11.797Z,2.85
2022-09-12T17:48:39.538Z,3.30
2022-09-12T17:51:09.614Z,3.15
2022-09-12T17:53:36.099Z,2.90
2022-09-12T17:56:03.310Z,3.20
2022-09-12T17:58:30.224Z,3.25
2022-09-12T18:01:01.123Z,3.10
2022-09-12T18:03:27.510Z,3.15
2022-09-12T18:05:56.411Z,2.80
2022-09-12T18:08:23.858Z,2.80
2022-09-12T18:10:51.044Z,2.78
2022-09-12T18:13:17.488Z,2.88
2022-09-12T18:15:44.100Z,3.13
2022-09-12T18:18:10.540Z,3.25
2022-09-12T18:20:36.932Z,3.25
2022-09-12T18:23:04.664Z,3.60
2022-09-12T18:25:31.033Z,3.30
2022-09-12T18:27:57.391Z,3.53
2022-09-12T18:30:23.887Z,3.55
2022-09-12T18:32:51.733Z,3.45
2022-09-12T18:35:18.121Z,3.47
2022-09-12T18:37:44.541Z,4.15
2022-09-12T18:40:12.424Z,3.67
2022-09-12T18:42:38.811Z,3.63
2022-09-12T18:45:07.029Z,3.60
2022-09-12T18:47:33.431Z,3.60
2022-09-12T18:49:59.848Z,3.72
2022-09-12T18:52:26.235Z,3.80
2022-09-12T18:54:52.723Z,4.00
2022-09-12T18:57:20.430Z,3.75
2022-09-12T18:59:46.828Z,3.58
2022-09-12T19:02:15.897Z,3.25
2022-09-12T19:04:42.482Z,3.80
2022-09-12T19:07:09.141Z,3.53
2022-09-12T19:09:35.546Z,3.30
2022-09-12T19:12:02.536Z,3.30
2022-09-12T19:14:30.463Z,3.38
2022-09-12T19:16:56.810Z,3.30
2022-09-12T19:19:23.186Z,3.25
2022-09-12T19:21:49.643Z,3.38
2022-09-12T19:24:16.043Z,3.88
2022-09-12T19:26:42.508Z,3.00
2022-09-12T19:29:10.166Z,3.20
2022-09-12T19:31:38.043Z,3.38
2022-09-12T19:34:06.727Z,2.72
2022-09-12T19:36:45.442Z,3.25
2022-09-12T19:39:12.411Z,3.53
2022-09-12T19:41:38.821Z,2.88
2022-09-12T19:44:05.342Z,3.80
2022-09-12T19:46:32.050Z,3.63
2022-09-12T19:48:59.793Z,3.35
2022-09-12T19:51:26.174Z,3.28
2022-09-12T19:53:53.148Z,3.72
2022-09-12T19:56:19.583Z,3.00
2022-09-12T19:58:50.891Z,3.25
2022-09-12T20:01:22.177Z,3.80
2022-09-12T20:03:48.544Z,3.17
2022-09-12T20:06:17.680Z,3.63
2022-09-12T20:08:44.923Z,3.17
2022-09-12T20:11:12.895Z,3.05
2022-09-12T20:13:39.679Z,3.58
2022-09-12T20:16:07.092Z,3.00
2022-09-12T20:18:33.654Z,3.30
2022-09-12T20:21:07.831Z,3.22
2022-09-12T20:23:35.795Z,3.63
2022-09-12T20:26:02.161Z,3.97
2022-09-12T20:28:28.540Z,3.67
2022-09-12T20:31:00.427Z,3.65
2022-09-12T20:33:27.818Z,3.60
2022-09-12T20:36:01.432Z,3.83
2022-09-12T20:38:27.781Z,4.32
2022-09-12T20:40:55.698Z,4.63
2022-09-12T20:43:22.239Z,4.50
2022-09-12T20:45:48.587Z,4.68
2022-09-12T20:48:14.967Z,4.13
2022-09-12T20:50:41.352Z,4.50
2022-09-12T20:53:07.712Z,4.32
2022-09-12T20:55:34.100Z,4.30
2022-09-12T20:58:01.955Z,4.00
2022-09-12T21:00:28.316Z,4.07
2022-09-12T21:02:54.717Z,4.55
2022-09-12T21:05:21.111Z,4.00
2022-09-12T21:07:47.540Z,4.45
2022-09-12T21:10:14.132Z,4.07
2022-09-12T21:12:40.581Z,4.10
2022-09-12T21:15:09.800Z,4.07
2022-09-12T21:17:36.206Z,3.85
2022-09-12T21:20:02.598Z,3.75
2022-09-12T21:22:29.744Z,3.50
2022-09-12T21:24:56.098Z,3.88
2022-09-12T21:27:22.455Z,4.32
2022-09-12T21:29:48.775Z,4.07
2022-09-12T21:32:16.519Z,3.65
2022-09-12T21:34:42.907Z,3.92
2022-09-12T21:37:09.301Z,3.78
2022-09-12T21:39:35.655Z,3.70
2022-09-12T21:42:02.091Z,3.90
2022-09-12T21:44:28.463Z,3.50
2022-09-12T21:46:54.886Z,4.05
2022-09-12T21:49:22.568Z,3.28
2022-09-12T21:51:51.098Z,3.78
2022-09-12T21:54:17.435Z,3.58
2022-09-12T21:56:43.864Z,3.67
2022-09-12T21:59:10.228Z,4.03
2022-09-12T22:01:36.672Z,3.65
2022-09-12T22:04:03.327Z,4.65
2022-09-12T22:06:31.008Z,3.85
2022-09-12T22:08:57.388Z,3.72
2022-09-12T22:11:23.793Z,3.10
2022-09-12T22:13:50.314Z,3.13
2022-09-12T22:16:16.813Z,3.95
2022-09-12T22:18:43.261Z,3.50
2022-09-12T22:21:17.619Z,3.78
2022-09-12T22:23:45.478Z,3.50
2022-09-12T22:26:31.388Z,3.58
2022-09-12T22:28:57.752Z,3.80
2022-09-12T22:31:24.241Z,3.60
2022-09-12T22:33:50.663Z,3.63
2022-09-12T22:36:17.095Z,4.10
2022-09-12T22:38:44.826Z,3.75
2022-09-12T22:41:12.078Z,3.55
2022-09-12T22:43:38.455Z,4.00
2022-09-12T22:46:06.848Z,3.92
2022-09-12T22:48:33.311Z,3.53
2022-09-12T22:50:59.707Z,3.25
2022-09-12T22:53:26.070Z,3.80
2022-09-12T22:55:53.851Z,3.78
2022-09-12T22:58:20.472Z,3.50
2022-09-12T23:00:47.385Z,3.45
2022-09-12T23:03:14.025Z,3.70
2022-09-12T23:05:40.423Z,3.08
2022-09-12T23:08:06.782Z,3.63
2022-09-12T23:10:35.093Z,3.85
2022-09-12T23:13:02.837Z,3.35
2022-09-12T23:15:29.234Z,3.35
2022-09-12T23:17:55.608Z,3.42
2022-09-12T23:20:21.992Z,3.95
2022-09-12T23:22:48.364Z,3.55
2022-09-12T23:25:14.877Z,4.00
2022-09-12T23:27:41.291Z,3.47
2022-09-12T23:30:10.591Z,3.50
2022-09-12T23:32:36.989Z,3.75
2022-09-12T23:35:03.637Z,3.80
2022-09-12T23:37:30.140Z,3.45
2022-09-12T23:39:56.544Z,3.30
2022-09-12T23:42:22.926Z,3.30
2022-09-12T23:44:49.278Z,3.22
2022-09-12T23:47:16.982Z,3.38
2022-09-12T23:49:43.372Z,3.60
2022-09-12T23:52:09.714Z,4.15
2022-09-12T23:54:36.056Z,3.92
2022-09-12T23:57:02.471Z,3.65
2022-09-12T23:59:28.815Z,3.60
